Statia Express — V7TT3 — position and weather

sailwx.info

Track history (hours):
 
Tides and Currents Weather Stations Pressure Air Temp Water Temp Dewpoint Dewpoint Depression Visibility Wind Speed Wind Dir Waves Ship Positions

Statia Express

Last reported at 2015-Feb-06 06:29 UTC. Time now 2015-Mar-31 12:43 UTC.
Position N 17°40' W 063°03'.
Warning: this ship's position is 53 days out of date.

Length 28 m; draft 4.1 m.

Type: Tug. MMSI: 538003879.

Date/timePositionNaut miles runAvg speedWind from/ knotsBaromVisibWave heightAir tempDewpointWater temp
2015-Feb-06 06:29N 17°40' W 063°03'6 6.1
2015-Feb-06 05:32N 17°45' W 063°04'6 6.0
2015-Feb-06 04:31N 17°51' W 063°04'6 6.0
2015-Feb-06 03:33N 17°57' W 063°04'4 0.7
2015-Feb-05 22:13N 18°01' W 063°03'0 0.0
2015-Feb-05 21:22N 18°01' W 063°03'0 0.0
2015-Feb-05 20:24N 18°01' W 063°03'0 0.0
2015-Feb-05 19:13N 18°01' W 063°03'0 0.1
2015-Feb-05 18:05N 18°01' W 063°03'0 0.1
2015-Feb-05 17:33N 18°01' W 063°03'0 0.0
2015-Feb-05 16:17N 18°01' W 063°03'0 0.0
2015-Feb-05 15:29N 18°01' W 063°03'0 0.1
2015-Feb-05 14:03N 18°01' W 063°03'0 0.3
2015-Feb-05 13:25N 18°01' W 063°03'0 0.0
2015-Feb-05 10:19N 18°01' W 063°03'0 0.0
2015-Feb-05 09:33N 18°01' W 063°03'0 0.0
2015-Feb-05 08:20N 18°01' W 063°03'0 0.0
2015-Feb-05 07:26N 18°01' W 063°03'0 0.0
2015-Feb-05 06:15N 18°01' W 063°03'0 0.0
2015-Feb-05 05:16N 18°01' W 063°03'0 0.0
2015-Feb-05 04:16N 18°01' W 063°03'0 0.1
2015-Feb-05 02:22N 18°01' W 063°03'0 0.0
2015-Feb-05 01:10N 18°01' W 063°03'2 1.1
2015-Feb-04 23:29N 18°01' W 063°05'0 0.0
2015-Feb-04 22:31N 18°01' W 063°05'0 0.0
2015-Feb-04 21:28N 18°01' W 063°05'0 0.0
2015-Feb-04 20:30N 18°01' W 063°05'0 0.0
2015-Feb-04 19:32N 18°01' W 063°05'0 0.0
2015-Feb-04 18:22N 18°01' W 063°05'0 0.0
2015-Feb-04 17:29N 18°01' W 063°05'0 0.0
2015-Feb-04 16:27N 18°01' W 063°05'0 0.0
2015-Feb-04 15:33N 18°01' W 063°05'0 0.0
2015-Feb-04 14:33N 18°01' W 063°05'0 0.0
2015-Feb-04 13:29N 18°01' W 063°05'0 0.0
2015-Feb-04 12:25N 18°01' W 063°05'0 0.0
2015-Feb-04 11:29N 18°01' W 063°05'2 1.8
2015-Feb-04 10:33N 18°01' W 063°03'0 0.1
2015-Feb-04 08:04N 18°01' W 063°03'0 0.0
2015-Feb-04 05:29N 18°01' W 063°03'0 0.0
2015-Feb-04 00:05N 18°01' W 063°03'0 0.2
2015-Feb-03 23:15N 18°01' W 063°03'0 0.0
2015-Feb-03 22:28N 18°01' W 063°03'0 0.0
2015-Feb-03 20:33N 18°01' W 063°03'0 0.0
2015-Feb-03 12:32N 18°01' W 063°03'2 2.3
2015-Feb-03 11:30N 17°58' W 063°04'4 4.4
2015-Feb-03 10:33N 17°54' W 063°04'5 5.0
2015-Feb-03 09:31N 17°49' W 063°04'  
2015-Jan-30 22:29N 17°42' W 063°03'6 6.5
2015-Jan-30 21:33N 17°48' W 063°04'7 6.5
2015-Jan-30 20:32N 17°54' W 063°04'5 5.5
2015-Jan-30 19:33N 17°60' W 063°04'1 1.2
2015-Jan-30 18:19N 18°01' W 063°03'1 0.2
2015-Jan-30 15:28N 18°00' W 063°03'1 0.1
2015-Jan-30 11:32N 18°01' W 063°03'0 0.0
2015-Jan-30 10:12N 18°01' W 063°03'0 0.0
2015-Jan-30 09:23N 18°01' W 063°03'0 0.0
2015-Jan-30 08:29N 18°01' W 063°03'0 0.0
2015-Jan-30 07:25N 18°01' W 063°03'0 0.0
2015-Jan-30 06:27N 18°01' W 063°03'0 0.0
2015-Jan-30 05:15N 18°01' W 063°03'0 0.0
2015-Jan-30 02:17N 18°01' W 063°03'0 0.0
2015-Jan-30 01:21N 18°01' W 063°03'0 0.0
2015-Jan-30 00:09N 18°01' W 063°03'0 0.0
2015-Jan-29 23:13N 18°01' W 063°03'0 0.0
2015-Jan-29 22:25N 18°01' W 063°03'0 0.0
2015-Jan-29 21:33N 18°01' W 063°03'0 0.0
2015-Jan-29 20:33N 18°01' W 063°03'0 0.0
2015-Jan-29 13:16N 18°00' W 063°03'0 0.1
2015-Jan-29 12:31N 18°00' W 063°03'0 0.2
2015-Jan-29 10:06N 18°01' W 063°03'4 7.0
2015-Jan-29 09:30N 17°57' W 063°04'9 9.8
2015-Jan-29 08:33N 17°48' W 063°04'1 0.1
2015-Jan-29 01:26N 17°48' W 063°04'6 6.9
2015-Jan-29 00:32N 17°54' W 063°04'6 5.4
2015-Jan-28 23:28N 18°00' W 063°04'1 1.0
2015-Jan-28 22:12N 18°01' W 063°03'0 0.0
2015-Jan-28 21:27N 18°01' W 063°03'0 0.0
2015-Jan-28 19:13N 18°01' W 063°03'0 0.2
2015-Jan-28 17:21N 18°01' W 063°03'0 0.0
2015-Jan-28 11:24N 18°01' W 063°03'0 0.0
2015-Jan-28 03:24N 18°01' W 063°03'0 0.0
2015-Jan-28 01:09N 18°01' W 063°03'0 0.0
2015-Jan-28 00:11N 18°01' W 063°03'0 0.1
2015-Jan-27 22:05N 18°01' W 063°03'0 0.1
2015-Jan-27 20:28N 18°01' W 063°03'0 0.1
2015-Jan-27 17:14N 18°00' W 063°03'0 0.1
2015-Jan-27 14:09N 18°01' W 063°03'  
Track history (hours):
 
Tides and Currents Weather Stations Pressure Air Temp Water Temp Dewpoint Dewpoint Depression Visibility Wind Speed Wind Dir Waves Ship Positions

Statia Express

Last reported at 2015-Feb-06 06:29 UTC. Time now 2015-Mar-31 12:43 UTC.
Position N 17°40' W 063°03'.
Warning: this ship's position is 53 days out of date.

Length 28 m; draft 4.1 m.

Type: Tug. MMSI: 538003879.

Date/timePositionNaut miles runAvg speedWind from/ knotsBaromVisibWave heightAir tempDewpointWater temp
2015-Feb-06 06:29N 17°40' W 063°03'6 6.1
2015-Feb-06 05:32N 17°45' W 063°04'6 6.0
2015-Feb-06 04:31N 17°51' W 063°04'6 6.0
2015-Feb-06 03:33N 17°57' W 063°04'4 0.7
2015-Feb-05 22:13N 18°01' W 063°03'0 0.0
2015-Feb-05 21:22N 18°01' W 063°03'0 0.0
2015-Feb-05 20:24N 18°01' W 063°03'0 0.0
2015-Feb-05 19:13N 18°01' W 063°03'0 0.1
2015-Feb-05 18:05N 18°01' W 063°03'0 0.1
2015-Feb-05 17:33N 18°01' W 063°03'0 0.0
2015-Feb-05 16:17N 18°01' W 063°03'0 0.0
2015-Feb-05 15:29N 18°01' W 063°03'0 0.1
2015-Feb-05 14:03N 18°01' W 063°03'0 0.3
2015-Feb-05 13:25N 18°01' W 063°03'0 0.0
2015-Feb-05 10:19N 18°01' W 063°03'0 0.0
2015-Feb-05 09:33N 18°01' W 063°03'0 0.0
2015-Feb-05 08:20N 18°01' W 063°03'0 0.0
2015-Feb-05 07:26N 18°01' W 063°03'0 0.0
2015-Feb-05 06:15N 18°01' W 063°03'0 0.0
2015-Feb-05 05:16N 18°01' W 063°03'0 0.0
2015-Feb-05 04:16N 18°01' W 063°03'0 0.1
2015-Feb-05 02:22N 18°01' W 063°03'0 0.0
2015-Feb-05 01:10N 18°01' W 063°03'2 1.1
2015-Feb-04 23:29N 18°01' W 063°05'0 0.0
2015-Feb-04 22:31N 18°01' W 063°05'0 0.0
2015-Feb-04 21:28N 18°01' W 063°05'0 0.0
2015-Feb-04 20:30N 18°01' W 063°05'0 0.0
2015-Feb-04 19:32N 18°01' W 063°05'0 0.0
2015-Feb-04 18:22N 18°01' W 063°05'0 0.0
2015-Feb-04 17:29N 18°01' W 063°05'0 0.0
2015-Feb-04 16:27N 18°01' W 063°05'0 0.0
2015-Feb-04 15:33N 18°01' W 063°05'0 0.0
2015-Feb-04 14:33N 18°01' W 063°05'0 0.0
2015-Feb-04 13:29N 18°01' W 063°05'0 0.0
2015-Feb-04 12:25N 18°01' W 063°05'0 0.0
2015-Feb-04 11:29N 18°01' W 063°05'2 1.8
2015-Feb-04 10:33N 18°01' W 063°03'0 0.1
2015-Feb-04 08:04N 18°01' W 063°03'0 0.0
2015-Feb-04 05:29N 18°01' W 063°03'0 0.0
2015-Feb-04 00:05N 18°01' W 063°03'0 0.2
2015-Feb-03 23:15N 18°01' W 063°03'0 0.0
2015-Feb-03 22:28N 18°01' W 063°03'0 0.0
2015-Feb-03 20:33N 18°01' W 063°03'0 0.0
2015-Feb-03 12:32N 18°01' W 063°03'2 2.3
2015-Feb-03 11:30N 17°58' W 063°04'4 4.4
2015-Feb-03 10:33N 17°54' W 063°04'5 5.0
2015-Feb-03 09:31N 17°49' W 063°04'  
2015-Jan-30 22:29N 17°42' W 063°03'6 6.5
2015-Jan-30 21:33N 17°48' W 063°04'7 6.5
2015-Jan-30 20:32N 17°54' W 063°04'5 5.5
2015-Jan-30 19:33N 17°60' W 063°04'1 1.2
2015-Jan-30 18:19N 18°01' W 063°03'1 0.2
2015-Jan-30 15:28N 18°00' W 063°03'1 0.1
2015-Jan-30 11:32N 18°01' W 063°03'0 0.0
2015-Jan-30 10:12N 18°01' W 063°03'0 0.0
2015-Jan-30 09:23N 18°01' W 063°03'0 0.0
2015-Jan-30 08:29N 18°01' W 063°03'0 0.0
2015-Jan-30 07:25N 18°01' W 063°03'0 0.0
2015-Jan-30 06:27N 18°01' W 063°03'0 0.0
2015-Jan-30 05:15N 18°01' W 063°03'0 0.0
2015-Jan-30 02:17N 18°01' W 063°03'0 0.0
2015-Jan-30 01:21N 18°01' W 063°03'0 0.0
2015-Jan-30 00:09N 18°01' W 063°03'0 0.0
2015-Jan-29 23:13N 18°01' W 063°03'0 0.0
2015-Jan-29 22:25N 18°01' W 063°03'0 0.0
2015-Jan-29 21:33N 18°01' W 063°03'0 0.0
2015-Jan-29 20:33N 18°01' W 063°03'0 0.0
2015-Jan-29 13:16N 18°00' W 063°03'0 0.1
2015-Jan-29 12:31N 18°00' W 063°03'0 0.2
2015-Jan-29 10:06N 18°01' W 063°03'4 7.0
2015-Jan-29 09:30N 17°57' W 063°04'9 9.8
2015-Jan-29 08:33N 17°48' W 063°04'1 0.1
2015-Jan-29 01:26N 17°48' W 063°04'6 6.9
2015-Jan-29 00:32N 17°54' W 063°04'6 5.4
2015-Jan-28 23:28N 18°00' W 063°04'1 1.0
2015-Jan-28 22:12N 18°01' W 063°03'0 0.0
2015-Jan-28 21:27N 18°01' W 063°03'0 0.0
2015-Jan-28 19:13N 18°01' W 063°03'0 0.2
2015-Jan-28 17:21N 18°01' W 063°03'0 0.0
2015-Jan-28 11:24N 18°01' W 063°03'0 0.0
2015-Jan-28 03:24N 18°01' W 063°03'0 0.0
2015-Jan-28 01:09N 18°01' W 063°03'0 0.0
2015-Jan-28 00:11N 18°01' W 063°03'0 0.1
2015-Jan-27 22:05N 18°01' W 063°03'0 0.1
2015-Jan-27 20:28N 18°01' W 063°03'0 0.1
2015-Jan-27 17:14N 18°00' W 063°03'0 0.1
2015-Jan-27 14:09N 18°01' W 063°03'  

Dump ship's entire track history